createdAt,value
2022-11-03T00:01:42.200Z,9.68
2022-11-03T00:04:17.842Z,8.10
2022-11-03T00:06:50.326Z,8.63
2022-11-03T00:09:21.512Z,9.18
2022-11-03T00:11:51.542Z,8.68
2022-11-03T00:14:22.994Z,8.35
2022-11-03T00:16:55.042Z,8.17
2022-11-03T00:19:24.979Z,7.45
2022-11-03T00:21:55.300Z,7.40
2022-11-03T00:24:26.935Z,7.65
2022-11-03T00:26:58.396Z,8.13
2022-11-03T00:29:27.422Z,7.90
2022-11-03T00:31:59.126Z,8.93
2022-11-03T00:34:28.361Z,8.23
2022-11-03T00:36:57.624Z,9.15
2022-11-03T00:39:25.761Z,7.82
2022-11-03T00:41:54.031Z,7.13
2022-11-03T00:44:22.367Z,9.45
2022-11-03T00:46:50.896Z,7.63
2022-11-03T00:49:22.673Z,8.15
2022-11-03T00:51:51.322Z,7.93
2022-11-03T00:54:19.319Z,7.78
2022-11-03T00:56:52.843Z,8.27
2022-11-03T00:59:20.877Z,6.95
2022-11-03T01:01:49.244Z,8.07
2022-11-03T01:04:38.689Z,8.57
2022-11-03T01:07:07.639Z,7.40
2022-11-03T01:09:40.150Z,7.57
2022-11-03T01:12:10.053Z,7.22
2022-11-03T01:14:45.706Z,7.65
2022-11-03T01:17:16.291Z,7.28
2022-11-03T01:19:50.145Z,7.00
2022-11-03T01:22:22.085Z,6.95
2022-11-03T01:24:52.103Z,8.23
2022-11-03T01:27:22.469Z,6.97
2022-11-03T01:29:50.849Z,7.70
2022-11-03T01:32:21.457Z,8.57
2022-11-03T01:34:57.721Z,7.70
2022-11-03T01:37:27.166Z,8.35
2022-11-03T01:40:00.186Z,7.88
2022-11-03T01:42:30.330Z,7.40
2022-11-03T01:45:00.958Z,6.90
2022-11-03T01:47:35.898Z,6.30
2022-11-03T01:50:12.126Z,7.15
2022-11-03T01:52:42.285Z,6.43
2022-11-03T01:55:12.964Z,7.00
2022-11-03T01:57:44.509Z,6.63
2022-11-03T02:00:13.640Z,6.80
2022-11-03T02:02:44.491Z,6.72
2022-11-03T02:05:16.047Z,6.82
2022-11-03T02:07:52.176Z,5.97
2022-11-03T02:10:24.322Z,6.53
2022-11-03T02:12:53.082Z,6.95
2022-11-03T02:15:28.024Z,7.85
2022-11-03T02:17:59.798Z,7.70
2022-11-03T02:20:36.213Z,7.70
2022-11-03T02:23:32.113Z,6.00
2022-11-03T02:26:04.429Z,6.63
2022-11-03T02:31:15.204Z,5.03
2022-11-03T02:33:57.486Z,4.90
2022-11-03T02:36:29.355Z,4.82
2022-11-03T02:39:00.695Z,4.45
2022-11-03T02:41:44.204Z,5.10
2022-11-03T02:44:20.127Z,4.72
2022-11-03T02:46:52.882Z,5.28
2022-11-03T02:49:22.091Z,4.80
2022-11-03T02:52:00.094Z,5.65
2022-11-03T02:54:32.584Z,5.68
2022-11-03T02:57:04.921Z,4.70
2022-11-03T03:02:06.375Z,5.55
2022-11-03T03:04:37.403Z,4.65
2022-11-03T03:07:10.835Z,4.93
2022-11-03T03:09:48.197Z,4.63
2022-11-03T03:12:24.303Z,4.38
2022-11-03T03:14:55.196Z,4.00
2022-11-03T03:17:29.665Z,4.38
2022-11-03T03:20:03.089Z,5.03
2022-11-03T03:22:37.792Z,3.70
2022-11-03T03:25:12.944Z,4.57
2022-11-03T03:27:47.323Z,4.88
2022-11-03T03:30:17.617Z,5.65
2022-11-03T03:32:48.442Z,4.43
2022-11-03T03:35:23.020Z,4.95
2022-11-03T03:37:53.553Z,4.47
2022-11-03T03:40:28.713Z,4.88
2022-11-03T03:43:02.152Z,5.20
2022-11-03T03:45:31.811Z,4.78
2022-11-03T03:48:00.684Z,5.53
2022-11-03T03:50:32.099Z,5.03
2022-11-03T03:53:02.506Z,5.07
2022-11-03T03:55:37.471Z,6.05
2022-11-03T03:58:16.162Z,5.45
2022-11-03T04:00:44.647Z,5.50
2022-11-03T04:03:28.965Z,5.88
2022-11-03T04:05:58.682Z,5.47
2022-11-03T04:08:30.344Z,6.35
2022-11-03T04:11:16.109Z,5.82
2022-11-03T04:14:03.783Z,6.18
2022-11-03T04:16:51.327Z,7.35
2022-11-03T04:19:38.410Z,7.30
2022-11-03T04:22:21.492Z,5.72
2022-11-03T04:27:30.794Z,5.95
2022-11-03T04:30:11.943Z,6.20
2022-11-03T04:32:40.814Z,7.10
2022-11-03T04:35:19.062Z,6.32
2022-11-03T04:37:54.296Z,5.75
2022-11-03T04:40:23.360Z,7.00
2022-11-03T04:42:54.479Z,5.97
2022-11-03T04:45:28.666Z,5.93
2022-11-03T04:48:04.783Z,6.78
2022-11-03T04:50:34.478Z,6.38
2022-11-03T04:53:05.811Z,6.05
2022-11-03T04:55:35.577Z,7.00
2022-11-03T04:58:12.083Z,6.32
2022-11-03T05:00:42.623Z,6.25
2022-11-03T05:03:14.320Z,6.00
2022-11-03T05:05:42.596Z,6.50
2022-11-03T05:08:13.404Z,6.65
2022-11-03T05:10:42.900Z,7.38
2022-11-03T05:13:18.051Z,6.55
2022-11-03T05:15:50.782Z,6.30
2022-11-03T05:18:24.077Z,7.63
2022-11-03T05:20:58.584Z,7.25
2022-11-03T05:23:37.963Z,6.40
2022-11-03T05:26:10.364Z,6.65
2022-11-03T05:31:29.797Z,6.60
2022-11-03T05:34:02.811Z,7.13
2022-11-03T05:36:33.460Z,6.55
2022-11-03T05:39:35.184Z,6.75
2022-11-03T05:42:07.341Z,5.72
2022-11-03T05:44:42.812Z,6.78
2022-11-03T05:47:22.947Z,7.13
2022-11-03T05:49:52.820Z,6.40
2022-11-03T05:52:22.649Z,6.85
2022-11-03T05:54:51.746Z,6.40
2022-11-03T05:57:21.065Z,6.22
2022-11-03T05:59:52.100Z,6.00
2022-11-03T06:02:31.850Z,6.30
2022-11-03T06:05:00.158Z,6.50
2022-11-03T06:07:30.845Z,7.50
2022-11-03T06:09:59.826Z,5.30
2022-11-03T06:12:30.983Z,5.97
2022-11-03T06:14:59.243Z,5.55
2022-11-03T06:17:36.731Z,6.78
2022-11-03T06:20:12.041Z,6.45
2022-11-03T06:22:40.606Z,5.93
2022-11-03T06:25:15.558Z,6.28
2022-11-03T06:27:44.572Z,6.55
2022-11-03T06:30:21.830Z,7.20
2022-11-03T06:32:51.497Z,6.82
2022-11-03T06:35:20.937Z,6.82
2022-11-03T06:37:48.957Z,6.05
2022-11-03T06:40:36.585Z,6.45
2022-11-03T06:43:20.215Z,7.35
2022-11-03T06:45:53.568Z,6.68
2022-11-03T06:48:32.044Z,6.93
2022-11-03T06:51:00.734Z,6.50
2022-11-03T06:53:33.294Z,7.72
2022-11-03T06:56:01.641Z,7.25
2022-11-03T06:58:31.976Z,7.05
2022-11-03T07:01:07.166Z,7.68
2022-11-03T07:03:38.203Z,6.53
2022-11-03T07:06:16.561Z,6.47
2022-11-03T07:08:52.517Z,6.03
2022-11-03T07:11:22.891Z,5.10
2022-11-03T07:13:54.816Z,6.30
2022-11-03T07:16:30.270Z,6.53
2022-11-03T07:19:00.932Z,5.82
2022-11-03T07:21:35.837Z,4.32
2022-11-03T07:24:08.652Z,4.22
2022-11-03T07:26:37.070Z,5.18
2022-11-03T07:29:07.315Z,4.63
2022-11-03T07:31:35.845Z,3.47
2022-11-03T07:34:12.872Z,4.68
2022-11-03T07:36:41.351Z,3.92
2022-11-03T07:39:15.335Z,3.83
2022-11-03T07:41:46.572Z,4.93
2022-11-03T07:44:20.484Z,3.88
2022-11-03T07:46:50.136Z,4.00
2022-11-03T07:49:28.158Z,3.90
2022-11-03T07:51:58.944Z,4.28
2022-11-03T07:54:32.048Z,4.35
2022-11-03T07:57:10.502Z,4.78
2022-11-03T07:59:44.572Z,4.28
2022-11-03T08:02:27.612Z,4.00
2022-11-03T08:04:58.576Z,4.10
2022-11-03T08:07:29.408Z,4.15
2022-11-03T08:10:00.902Z,3.55
2022-11-03T08:12:31.409Z,4.70
2022-11-03T08:15:01.086Z,3.72
2022-11-03T08:17:32.241Z,4.22
2022-11-03T08:20:01.770Z,4.88
2022-11-03T08:22:30.181Z,4.35
2022-11-03T08:24:59.586Z,3.70
2022-11-03T08:27:27.939Z,4.28
2022-11-03T08:29:55.930Z,3.55
2022-11-03T08:32:24.464Z,3.53
2022-11-03T08:34:53.071Z,4.05
2022-11-03T08:37:22.678Z,3.45
2022-11-03T08:39:55.649Z,3.05
2022-11-03T08:42:25.272Z,3.20
2022-11-03T08:44:56.122Z,2.88
2022-11-03T08:47:24.383Z,3.40
2022-11-03T08:49:53.858Z,3.38
2022-11-03T08:52:24.953Z,3.42
2022-11-03T08:55:03.290Z,3.15
2022-11-03T08:57:35.606Z,3.60
2022-11-03T09:02:34.376Z,2.92
2022-11-03T09:05:04.019Z,3.10
2022-11-03T09:10:26.382Z,3.13
2022-11-03T09:13:00.098Z,2.95
2022-11-03T09:15:30.774Z,2.80
2022-11-03T09:17:59.636Z,2.90
2022-11-03T09:20:28.703Z,2.60
2022-11-03T09:22:59.135Z,2.65
2022-11-03T09:25:27.309Z,3.10
2022-11-03T09:27:56.702Z,2.33
2022-11-03T09:30:25.651Z,2.13
2022-11-03T09:32:53.901Z,2.60
2022-11-03T09:35:26.281Z,2.47
2022-11-03T09:40:29.865Z,2.40
2022-11-03T09:42:58.576Z,2.60
2022-11-03T09:45:29.424Z,2.40
2022-11-03T09:48:01.838Z,2.67
2022-11-03T09:53:04.230Z,2.17
2022-11-03T09:55:35.122Z,2.15
2022-11-03T09:58:10.572Z,2.30
2022-11-03T10:00:39.056Z,2.20
2022-11-03T10:03:12.901Z,2.50
2022-11-03T10:05:41.413Z,2.40
2022-11-03T10:08:18.334Z,1.80
2022-11-03T10:10:51.471Z,2.63
2022-11-03T10:13:24.814Z,2.10
2022-11-03T10:15:53.311Z,2.65
2022-11-03T10:18:21.671Z,2.78
2022-11-03T10:20:50.135Z,2.25
2022-11-03T10:23:23.431Z,2.55
2022-11-03T10:25:55.150Z,3.05
2022-11-03T10:28:27.775Z,2.80
2022-11-03T10:31:14.299Z,2.53
2022-11-03T10:33:53.935Z,1.80
2022-11-03T10:36:29.404Z,2.70
2022-11-03T10:38:59.598Z,2.83
2022-11-03T10:41:31.787Z,2.63
2022-11-03T10:44:08.270Z,2.58
2022-11-03T10:46:50.290Z,2.90
2022-11-03T10:51:56.019Z,3.73
2022-11-03T10:54:29.279Z,3.40
2022-11-03T10:57:05.133Z,3.25
2022-11-03T10:59:37.730Z,2.72
2022-11-03T11:02:17.478Z,2.30
2022-11-03T11:04:50.269Z,2.25
2022-11-03T11:07:24.981Z,2.15
2022-11-03T11:09:53.709Z,1.98
2022-11-03T11:12:27.086Z,2.08
2022-11-03T11:15:01.462Z,2.22
2022-11-03T11:17:46.757Z,2.40
2022-11-03T11:20:39.265Z,2.00
2022-11-03T11:23:47.223Z,2.95
2022-11-03T11:26:45.121Z,2.75
2022-11-03T11:29:48.226Z,1.85
2022-11-03T11:32:52.495Z,2.67
2022-11-03T11:36:06.901Z,2.10
2022-11-03T11:39:02.876Z,2.17
2022-11-03T11:42:09.260Z,2.35
2022-11-03T11:45:04.745Z,2.22
2022-11-03T11:47:45.702Z,2.75
2022-11-03T11:50:31.683Z,2.28
2022-11-03T11:56:14.290Z,2.20
2022-11-03T11:58:48.084Z,2.50
2022-11-03T12:01:26.708Z,3.22
2022-11-03T12:04:00.819Z,2.88
2022-11-03T12:06:37.631Z,3.38
2022-11-03T12:09:12.696Z,3.17
2022-11-03T12:11:46.489Z,1.92
2022-11-03T12:14:26.795Z,2.50
2022-11-03T12:16:59.090Z,2.15
2022-11-03T12:19:38.227Z,2.17
2022-11-03T12:22:07.412Z,2.47
2022-11-03T12:24:38.554Z,2.30
2022-11-03T12:27:21.479Z,2.30
2022-11-03T12:29:49.651Z,2.40
2022-11-03T12:32:34.590Z,2.47
2022-11-03T12:35:04.073Z,2.15
2022-11-03T12:37:33.152Z,2.70
2022-11-03T12:40:01.709Z,2.33
2022-11-03T12:42:31.627Z,3.85
2022-11-03T12:45:00.695Z,3.03
2022-11-03T12:47:30.254Z,2.92
2022-11-03T12:50:02.233Z,2.60
2022-11-03T12:52:32.230Z,2.47
2022-11-03T12:55:00.670Z,2.63
2022-11-03T12:57:30.027Z,2.67
2022-11-03T12:59:59.285Z,2.85
2022-11-03T13:02:28.961Z,2.75
2022-11-03T13:05:01.307Z,2.50
2022-11-03T13:07:34.494Z,2.35
2022-11-03T13:10:05.637Z,2.92
2022-11-03T13:12:35.598Z,2.10
2022-11-03T13:15:06.810Z,2.70
2022-11-03T13:17:59.347Z,2.85
2022-11-03T13:20:26.066Z,2.42
2022-11-03T13:22:54.637Z,2.50
2022-11-03T13:25:24.737Z,2.58
2022-11-03T13:27:56.082Z,3.47
2022-11-03T13:33:24.919Z,2.75
2022-11-03T13:35:54.536Z,2.47
2022-11-03T13:38:23.176Z,3.42
2022-11-03T13:40:56.945Z,2.53
2022-11-03T13:43:26.742Z,2.28
2022-11-03T13:45:54.841Z,2.20
2022-11-03T13:51:17.662Z,3.35
2022-11-03T14:04:46.556Z,2.88
2022-11-03T14:07:17.344Z,2.70
2022-11-03T14:09:47.678Z,3.35
2022-11-03T14:12:36.711Z,3.13
2022-11-03T14:15:07.949Z,3.20
2022-11-03T14:17:36.285Z,2.53
2022-11-03T14:20:05.678Z,2.53
2022-11-03T14:22:36.622Z,3.10
2022-11-03T14:25:06.187Z,2.72
2022-11-03T14:27:35.836Z,2.75
2022-11-03T14:30:15.943Z,3.55
2022-11-03T14:32:44.124Z,2.63
2022-11-03T14:35:15.070Z,2.70
2022-11-03T14:37:44.909Z,3.10
2022-11-03T14:40:34.045Z,3.10
2022-11-03T14:45:59.048Z,3.63
2022-11-03T14:48:28.288Z,2.75
2022-11-03T14:50:58.550Z,3.30
2022-11-03T14:53:30.070Z,2.58
2022-11-03T14:55:59.535Z,2.87
2022-11-03T14:58:34.881Z,2.88
2022-11-03T15:01:04.878Z,2.55
2022-11-03T15:06:33.770Z,3.20
2022-11-03T15:09:04.794Z,2.78
2022-11-03T15:11:35.424Z,3.45
2022-11-03T15:14:03.972Z,3.60
2022-11-03T15:16:34.639Z,2.75
2022-11-03T15:19:03.671Z,3.03
2022-11-03T15:21:31.737Z,3.00
2022-11-03T15:26:57.425Z,2.20
2022-11-03T15:29:25.989Z,3.60
2022-11-03T15:31:54.407Z,3.05
2022-11-03T15:34:23.805Z,2.88
2022-11-03T15:36:52.521Z,3.35
2022-11-03T15:39:20.748Z,2.53
2022-11-03T15:41:52.841Z,2.83
2022-11-03T15:44:25.520Z,3.05
2022-11-03T15:47:02.423Z,3.05
2022-11-03T15:49:33.593Z,3.15
2022-11-03T15:52:04.141Z,3.05
2022-11-03T15:54:32.745Z,4.55
2022-11-03T15:57:04.713Z,3.40
2022-11-03T15:59:35.554Z,3.38
2022-11-03T16:02:20.187Z,4.82
2022-11-03T16:04:54.728Z,4.07
2022-11-03T16:07:23.302Z,3.80
2022-11-03T16:09:53.068Z,3.45
2022-11-03T16:12:27.109Z,3.85
2022-11-03T16:14:58.024Z,3.58
2022-11-03T16:17:28.536Z,3.45
2022-11-03T16:19:59.277Z,3.58
2022-11-03T16:22:27.306Z,3.05
2022-11-03T16:24:56.811Z,4.45
2022-11-03T16:27:29.384Z,4.95
2022-11-03T16:29:58.019Z,4.47
2022-11-03T16:32:29.702Z,3.70
2022-11-03T16:34:59.850Z,4.43
2022-11-03T16:37:32.011Z,4.57
2022-11-03T16:40:00.033Z,3.95
2022-11-03T16:42:29.372Z,4.10
2022-11-03T16:44:57.746Z,3.83
2022-11-03T16:47:27.920Z,3.90
2022-11-03T16:49:56.861Z,3.97
2022-11-03T16:52:25.541Z,5.35
2022-11-03T16:54:59.248Z,4.57
2022-11-03T16:57:29.108Z,3.70
2022-11-03T17:00:02.150Z,3.90
2022-11-03T17:02:31.105Z,4.25
2022-11-03T17:04:59.434Z,4.05
2022-11-03T17:07:28.349Z,4.20
2022-11-03T17:10:01.757Z,4.65
2022-11-03T17:12:36.850Z,4.30
2022-11-03T17:15:05.835Z,3.60
2022-11-03T17:17:41.315Z,4.45
2022-11-03T17:20:14.089Z,4.30
2022-11-03T17:22:43.285Z,4.28
2022-11-03T17:25:13.424Z,4.90
2022-11-03T17:27:45.600Z,3.60
2022-11-03T17:30:20.314Z,4.00
2022-11-03T17:32:50.785Z,4.55
2022-11-03T17:35:24.989Z,4.45
2022-11-03T17:37:53.755Z,4.15
2022-11-03T17:40:25.428Z,3.60
2022-11-03T17:42:55.616Z,4.05
2022-11-03T17:45:30.076Z,4.50
2022-11-03T17:47:59.856Z,4.10
2022-11-03T17:50:29.665Z,3.65
2022-11-03T17:53:02.256Z,4.05
2022-11-03T17:55:32.732Z,4.43
2022-11-03T17:58:04.775Z,4.45
2022-11-03T18:00:33.958Z,4.00
2022-11-03T18:03:06.462Z,4.43
2022-11-03T18:05:38.196Z,3.90
2022-11-03T18:08:10.618Z,4.00
2022-11-03T18:10:44.848Z,4.80
2022-11-03T18:13:17.751Z,4.07
2022-11-03T18:15:48.014Z,4.47
2022-11-03T18:18:22.566Z,3.10
2022-11-03T18:20:53.654Z,3.80
2022-11-03T18:23:24.906Z,4.28
2022-11-03T18:25:54.417Z,3.70
2022-11-03T18:28:26.454Z,4.55
2022-11-03T18:30:56.876Z,3.30
2022-11-03T18:33:29.492Z,4.15
2022-11-03T18:35:58.288Z,4.07
2022-11-03T18:38:29.880Z,4.28
2022-11-03T18:41:00.098Z,3.80
2022-11-03T18:43:32.877Z,3.23
2022-11-03T18:46:06.255Z,4.35
2022-11-03T18:48:34.499Z,3.55
2022-11-03T18:51:05.508Z,3.88
2022-11-03T18:53:34.343Z,4.20
2022-11-03T18:56:02.699Z,4.03
2022-11-03T18:58:34.622Z,3.38
2022-11-03T19:01:03.788Z,3.70
2022-11-03T19:03:35.077Z,3.20
2022-11-03T19:06:12.235Z,3.85
2022-11-03T19:08:43.179Z,4.63
2022-11-03T19:11:12.324Z,4.60
2022-11-03T19:13:44.408Z,3.97
2022-11-03T19:16:15.986Z,3.80
2022-11-03T19:18:45.172Z,3.90
2022-11-03T19:21:15.134Z,3.30
2022-11-03T19:23:57.077Z,4.20
2022-11-03T19:26:31.308Z,3.83
2022-11-03T19:29:06.404Z,4.05
2022-11-03T19:31:36.826Z,4.10
2022-11-03T19:34:07.589Z,3.40
2022-11-03T19:36:36.065Z,3.75
2022-11-03T19:39:06.886Z,4.57
2022-11-03T19:41:55.229Z,3.70
2022-11-03T19:44:26.838Z,4.75
2022-11-03T19:46:56.642Z,4.22
2022-11-03T19:49:27.577Z,4.32
2022-11-03T19:51:57.907Z,4.82
2022-11-03T19:54:26.473Z,3.97
2022-11-03T19:56:55.858Z,4.43
2022-11-03T19:59:26.447Z,4.00
2022-11-03T20:01:57.466Z,4.32
2022-11-03T20:04:26.363Z,4.78
2022-11-03T20:06:56.722Z,5.15
2022-11-03T20:09:25.855Z,4.90
2022-11-03T20:11:54.865Z,5.53
2022-11-03T20:14:28.573Z,4.85
2022-11-03T20:16:57.783Z,4.68
2022-11-03T20:19:25.975Z,4.93
2022-11-03T20:21:55.218Z,4.60
2022-11-03T20:24:24.517Z,4.45
2022-11-03T20:27:02.122Z,4.93
2022-11-03T20:29:34.861Z,4.63
2022-11-03T20:32:04.077Z,5.28
2022-11-03T20:34:32.579Z,4.63
2022-11-03T20:37:04.614Z,4.90
2022-11-03T20:39:35.147Z,4.78
2022-11-03T20:42:05.746Z,5.10
2022-11-03T20:44:35.839Z,4.68
2022-11-03T20:47:04.163Z,5.22
2022-11-03T20:49:34.753Z,5.07
2022-11-03T20:52:05.077Z,5.32
2022-11-03T20:54:36.148Z,5.82
2022-11-03T20:57:05.690Z,4.60
2022-11-03T20:59:38.698Z,5.90
2022-11-03T21:02:11.697Z,5.38
2022-11-03T21:04:45.532Z,5.32
2022-11-03T21:07:14.571Z,6.30
2022-11-03T21:09:42.831Z,5.85
2022-11-03T21:12:15.351Z,5.07
2022-11-03T21:15:07.563Z,6.00
2022-11-03T21:18:07.745Z,5.40
2022-11-03T21:20:36.090Z,5.20
2022-11-03T21:23:07.460Z,5.28
2022-11-03T21:25:37.941Z,6.35
2022-11-03T21:28:06.848Z,6.15
2022-11-03T21:30:36.465Z,5.80
2022-11-03T21:33:05.821Z,6.63
2022-11-03T21:35:35.386Z,5.20
2022-11-03T21:38:04.150Z,6.07
2022-11-03T21:40:35.302Z,6.05
2022-11-03T21:43:21.583Z,5.88
2022-11-03T21:45:51.022Z,5.15
2022-11-03T21:48:37.154Z,6.93
2022-11-03T21:51:08.075Z,5.95
2022-11-03T21:53:36.635Z,5.68
2022-11-03T21:56:10.445Z,6.55
2022-11-03T21:58:42.676Z,5.50
2022-11-03T22:01:15.361Z,6.35
2022-11-03T22:03:45.819Z,6.45
2022-11-03T22:06:14.073Z,5.43
2022-11-03T22:08:48.154Z,6.68
2022-11-03T22:11:22.220Z,5.82
2022-11-03T22:13:57.578Z,6.72
2022-11-03T22:16:41.869Z,6.65
2022-11-03T22:19:33.210Z,6.65
2022-11-03T22:22:21.427Z,6.18
2022-11-03T22:25:08.257Z,6.32
2022-11-03T22:27:43.209Z,5.88
2022-11-03T22:30:30.698Z,6.82
2022-11-03T22:33:03.883Z,6.88
2022-11-03T22:35:49.872Z,6.95
2022-11-03T22:38:22.342Z,6.72
2022-11-03T22:41:08.998Z,6.72
2022-11-03T22:43:54.619Z,7.32
2022-11-03T22:46:24.067Z,7.18
2022-11-03T22:49:10.717Z,6.95
2022-11-03T22:51:40.770Z,7.00
2022-11-03T22:54:11.292Z,7.72
2022-11-03T22:56:41.142Z,6.95
2022-11-03T22:59:13.118Z,8.25
2022-11-03T23:01:41.455Z,7.32
2022-11-03T23:04:10.847Z,7.28
2022-11-03T23:06:41.072Z,7.53
2022-11-03T23:09:11.305Z,8.63
2022-11-03T23:11:42.955Z,6.78
2022-11-03T23:14:11.825Z,7.95
2022-11-03T23:16:41.565Z,8.55
2022-11-03T23:19:34.399Z,7.47
2022-11-03T23:22:03.193Z,7.60
2022-11-03T23:24:49.189Z,7.50
2022-11-03T23:27:18.407Z,7.30
2022-11-03T23:29:46.709Z,6.90
2022-11-03T23:32:14.942Z,7.50
2022-11-03T23:34:44.378Z,7.95
2022-11-03T23:37:12.496Z,7.85
2022-11-03T23:39:40.757Z,7.47
2022-11-03T23:42:09.286Z,8.57
2022-11-03T23:44:51.291Z,8.00
2022-11-03T23:47:37.710Z,8.10
2022-11-03T23:50:09.094Z,7.82
2022-11-03T23:52:38.607Z,8.40
2022-11-03T23:55:09.671Z,7.63
2022-11-03T23:57:58.353Z,7.78
